Time;durP1;ratioP1;P1;durP2;ratioP2;P2;SDS_P1;SDS_P2;PMS_P1;PMS_P2;Temp;Humidity;BMP_temperature;BMP_pressure;BME280_temperature;BME280_humidity;BME280_pressure;Samples;Min_cycle;Max_cycle;Signal;HPM_P1;HPM_P2
2023/10/22 00:01:54;;;;;;;1.77;1.37;;;19.10;66.00;;;;;;6177547;23;20659;-86
2023/10/22 00:04:24;;;;;;;1.33;1.23;;;19.10;66.10;;;;;;6179583;23;20163;-85
2023/10/22 00:06:53;;;;;;;6.23;1.80;;;19.10;66.40;;;;;;6177153;23;20197;-86
2023/10/22 00:09:21;;;;;;;1.10;0.87;;;19.10;66.30;;;;;;6178688;23;20180;-87
2023/10/22 00:11:50;;;;;;;1.50;1.23;;;19.10;66.60;;;;;;6178011;23;20268;-85
2023/10/22 00:14:21;;;;;;;3.23;1.57;;;19.00;66.50;;;;;;6177536;23;20230;-85
2023/10/22 00:16:51;;;;;;;4.47;1.67;;;19.00;66.30;;;;;;6178545;23;20164;-86
2023/10/22 00:19:20;;;;;;;2.87;1.53;;;19.00;66.30;;;;;;6178682;23;20195;-85
2023/10/22 00:21:48;;;;;;;1.43;1.10;;;19.00;66.30;;;;;;6179698;23;20190;-88
2023/10/22 00:24:17;;;;;;;4.40;1.33;;;19.00;66.40;;;;;;6180556;23;20184;-86
2023/10/22 00:26:46;;;;;;;2.60;2.00;;;19.00;66.60;;;;;;6178960;23;20164;-88
2023/10/22 00:29:15;;;;;;;4.53;1.60;;;19.00;66.70;;;;;;6176158;23;20175;-85
2023/10/22 00:31:44;;;;;;;2.57;1.77;;;19.00;66.80;;;;;;6175838;23;20178;-85
2023/10/22 00:34:14;;;;;;;4.97;2.23;;;18.90;66.70;;;;;;6177503;23;20614;-87
2023/10/22 00:36:44;;;;;;;3.07;1.80;;;18.90;66.60;;;;;;6179360;23;20172;-85
2023/10/22 00:39:14;;;;;;;2.07;1.70;;;18.90;66.60;;;;;;6182662;23;20270;-84
2023/10/22 00:41:42;;;;;;;2.73;1.57;;;18.90;66.70;;;;;;6181714;23;20501;-85
2023/10/22 00:44:11;;;;;;;1.63;1.40;;;18.90;67.60;;;;;;6180225;23;20987;-88
2023/10/22 00:46:40;;;;;;;6.90;2.10;;;18.90;66.90;;;;;;6180428;23;20168;-87
2023/10/22 00:49:09;;;;;;;5.37;2.17;;;18.90;67.10;;;;;;6180449;23;20175;-86
2023/10/22 00:51:39;;;;;;;1.17;1.07;;;18.90;67.20;;;;;;6180871;23;20489;-87
2023/10/22 00:54:08;;;;;;;3.90;1.45;;;18.90;67.50;;;;;;6180018;23;20468;-86
2023/10/22 00:56:38;;;;;;;2.20;1.50;;;18.90;67.60;;;;;;6177849;23;20172;-86
2023/10/22 00:59:08;;;;;;;2.70;1.53;;;18.90;67.70;;;;;;6179442;23;20691;-86
2023/10/22 01:01:37;;;;;;;10.60;1.93;;;18.90;67.60;;;;;;6180532;23;20170;-85
2023/10/22 01:04:05;;;;;;;1.70;1.43;;;18.90;67.60;;;;;;6177948;23;20168;-88
2023/10/22 01:06:38;;;;;;;1.83;1.67;;;19.00;67.60;;;;;;6181046;23;20467;-86
2023/10/22 01:09:09;;;;;;;3.43;0.90;;;19.00;67.50;;;;;;6178789;23;20175;-85
2023/10/22 01:11:59;;;;;;;3.83;1.50;;;19.00;67.30;;;;;;6180666;23;20755;-87
2023/10/22 01:14:29;;;;;;;3.17;2.23;;;19.00;67.50;;;;;;6178891;23;20214;-86
2023/10/22 01:16:58;;;;;;;1.53;1.20;;;19.00;67.60;;;;;;6178863;23;20246;-88
2023/10/22 01:19:27;;;;;;;2.43;1.63;;;19.00;68.00;;;;;;6178510;23;20303;-87
2023/10/22 01:21:58;;;;;;;1.53;1.23;;;19.00;68.30;;;;;;6181160;23;20172;-86
2023/10/22 01:24:33;;;;;;;1.70;0.87;;;19.00;68.20;;;;;;6178202;23;20203;-88
2023/10/22 01:27:04;;;;;;;0.73;0.73;;;19.00;68.00;;;;;;6180075;23;20813;-86
2023/10/22 01:29:36;;;;;;;1.33;1.00;;;19.00;67.90;;;;;;6180112;23;20168;-86
2023/10/22 01:32:06;;;;;;;0.70;0.70;;;19.00;68.00;;;;;;6178684;23;20681;-87
2023/10/22 01:34:35;;;;;;;2.00;1.53;;;19.00;68.20;;;;;;6179312;23;20186;-86
2023/10/22 01:37:04;;;;;;;0.90;0.80;;;19.00;68.10;;;;;;6180060;23;20512;-86
2023/10/22 01:39:36;;;;;;;23.40;2.10;;;19.10;68.40;;;;;;6179054;23;20192;-86
2023/10/22 01:42:06;;;;;;;6.70;1.60;;;19.00;68.50;;;;;;6180759;23;20528;-87
2023/10/22 01:44:35;;;;;;;3.17;2.17;;;19.00;70.30;;;;;;6180271;23;20168;-85
2023/10/22 01:47:06;;;;;;;2.60;2.33;;;19.00;69.40;;;;;;6175744;23;20250;-85
2023/10/22 01:49:34;;;;;;;1.77;1.60;;;19.00;69.20;;;;;;6177306;23;20188;-87
2023/10/22 01:52:03;;;;;;;3.50;1.10;;;19.00;69.50;;;;;;6179385;23;20792;-87
2023/10/22 01:54:33;;;;;;;2.27;1.00;;;19.00;69.40;;;;;;6180225;23;20214;-87
2023/10/22 01:57:04;;;;;;;1.63;1.20;;;19.00;69.20;;;;;;6177872;23;20548;-86
2023/10/22 01:59:33;;;;;;;3.57;1.33;;;19.00;69.20;;;;;;6178289;23;20653;-86
2023/10/22 02:02:02;;;;;;;1.13;1.07;;;19.00;69.30;;;;;;6176866;23;20609;-87
2023/10/22 02:04:31;;;;;;;2.13;1.53;;;19.00;69.10;;;;;;6180076;23;20191;-88
2023/10/22 02:07:02;;;;;;;3.23;1.90;;;19.00;68.90;;;;;;6179449;23;20474;-86
2023/10/22 02:09:30;;;;;;;2.23;1.13;;;19.00;69.40;;;;;;6180785;23;20164;-87
2023/10/22 02:12:00;;;;;;;1.30;1.20;;;19.00;70.00;;;;;;6180634;23;20195;-84
2023/10/22 02:14:30;;;;;;;4.67;2.00;;;19.00;69.60;;;;;;6178255;23;20188;-87
2023/10/22 02:16:59;;;;;;;1.27;1.17;;;19.00;69.40;;;;;;6179144;23;20171;-86
2023/10/22 02:19:37;;;;;;;1.23;1.03;;;19.00;69.40;;;;;;6181048;23;20225;-86
2023/10/22 02:22:06;;;;;;;1.53;1.27;;;19.00;69.40;;;;;;6181825;23;20230;-87
2023/10/22 02:24:35;;;;;;;1.93;1.80;;;19.00;69.50;;;;;;6181676;23;20626;-88
2023/10/22 02:27:11;;;;;;;3.83;2.00;;;19.00;70.00;;;;;;6179337;23;20232;-87
2023/10/22 02:29:43;;;;;;;2.57;2.17;;;18.90;69.80;;;;;;6179952;23;20180;-88
2023/10/22 02:32:13;;;;;;;2.03;1.60;;;18.90;69.60;;;;;;6196557;23;20174;-88
2023/10/22 02:34:43;;;;;;;3.60;2.20;;;18.90;69.50;;;;;;6198419;23;20168;-86
2023/10/22 02:37:11;;;;;;;7.87;3.60;;;18.90;69.60;;;;;;6200048;23;20187;-87
2023/10/22 02:39:40;;;;;;;2.57;1.27;;;18.90;69.50;;;;;;6194152;23;20226;-84
2023/10/22 02:42:14;;;;;;;1.10;0.90;;;18.90;69.40;;;;;;6194922;23;20198;-86
2023/10/22 02:44:44;;;;;;;4.23;1.37;;;18.90;69.20;;;;;;6195820;23;20198;-88
2023/10/22 02:47:17;;;;;;;3.20;1.87;;;18.90;69.10;;;;;;6199039;23;20614;-86
2023/10/22 02:49:46;;;;;;;3.93;2.10;;;19.00;69.10;;;;;;6195636;23;20192;-85
2023/10/22 02:52:18;;;;;;;1.97;1.67;;;19.00;69.00;;;;;;6194566;23;20223;-88
2023/10/22 02:54:55;;;;;;;13.90;4.10;;;19.00;69.00;;;;;;6183689;23;20164;-87
2023/10/22 02:57:25;;;;;;;3.27;1.93;;;18.90;69.00;;;;;;6179439;23;20247;-89
2023/10/22 02:59:57;;;;;;;13.23;4.10;;;18.90;68.80;;;;;;6180210;23;20649;-89
2023/10/22 03:02:27;;;;;;;5.47;3.30;;;18.90;68.90;;;;;;6181747;23;20192;-89
2023/10/22 03:04:56;;;;;;;2.83;1.60;;;18.90;68.90;;;;;;6180706;23;20184;-89
2023/10/22 03:07:28;;;;;;;2.20;2.00;;;18.80;68.80;;;;;;6180471;23;20820;-87
2023/10/22 03:09:58;;;;;;;1.87;1.77;;;18.80;68.70;;;;;;6180769;23;20555;-88
2023/10/22 03:12:26;;;;;;;1.40;1.27;;;18.80;68.60;;;;;;6180882;23;20171;-87
2023/10/22 03:14:57;;;;;;;9.40;2.47;;;18.70;68.40;;;;;;6179880;23;20168;-85
2023/10/22 03:17:27;;;;;;;2.70;1.63;;;18.70;68.60;;;;;;6179635;23;20785;-86
2023/10/22 03:19:56;;;;;;;2.63;1.57;;;18.80;68.50;;;;;;6180896;23;20192;-88
2023/10/22 03:22:24;;;;;;;2.90;1.67;;;18.70;68.50;;;;;;6182100;23;20203;-86
2023/10/22 03:24:53;;;;;;;1.70;1.60;;;18.60;68.40;;;;;;6179336;23;20198;-87
2023/10/22 03:27:23;;;;;;;2.17;1.33;;;18.60;68.30;;;;;;6177981;23;20167;-88
2023/10/22 03:29:55;;;;;;;1.53;1.03;;;18.60;68.40;;;;;;6178180;23;20194;-86
2023/10/22 03:32:26;;;;;;;5.27;1.97;;;18.60;69.30;;;;;;6181071;23;20163;-86
2023/10/22 03:34:56;;;;;;;1.43;1.30;;;18.60;68.40;;;;;;6180251;23;20613;-87
2023/10/22 03:37:25;;;;;;;3.73;2.43;;;18.50;68.40;;;;;;6179373;23;20178;-86
2023/10/22 03:39:55;;;;;;;0.57;0.57;;;18.50;68.60;;;;;;6180622;23;20520;-87
2023/10/22 03:42:25;;;;;;;11.30;1.60;;;18.50;68.60;;;;;;6180663;23;20799;-87
2023/10/22 03:44:54;;;;;;;2.37;2.03;;;18.50;68.70;;;;;;6180125;23;20206;-86
2023/10/22 03:47:24;;;;;;;0.70;0.70;;;18.40;68.70;;;;;;6180105;23;20478;-88
2023/10/22 03:49:54;;;;;;;1.90;1.60;;;18.40;68.70;;;;;;6180710;23;20210;-87
2023/10/22 03:52:23;;;;;;;4.43;2.80;;;18.30;69.10;;;;;;6178782;23;20168;-87
2023/10/22 03:54:58;;;;;;;4.13;2.17;;;18.30;69.40;;;;;;6178604;23;20514;-85
2023/10/22 03:57:28;;;;;;;4.53;1.33;;;18.30;69.80;;;;;;6179498;23;20206;-87
2023/10/22 03:59:57;;;;;;;2.73;2.17;;;18.20;69.70;;;;;;6179255;23;20643;-86
2023/10/22 04:02:30;;;;;;;10.97;2.57;;;18.20;69.50;;;;;;6177267;23;20634;-86
2023/10/22 04:05:00;;;;;;;2.77;1.43;;;18.20;69.50;;;;;;6179414;23;20171;-86
2023/10/22 04:07:31;;;;;;;1.53;1.23;;;18.20;69.40;;;;;;6177549;23;20211;-86
2023/10/22 04:10:02;;;;;;;1.70;1.33;;;18.20;69.40;;;;;;6180390;23;20205;-87
2023/10/22 04:12:33;;;;;;;1.10;0.57;;;18.10;69.70;;;;;;6182376;23;20164;-89
2023/10/22 04:15:01;;;;;;;2.03;1.93;;;18.10;69.60;;;;;;6180404;23;20178;-86
2023/10/22 04:17:31;;;;;;;6.57;1.77;;;18.10;70.40;;;;;;6179049;23;20247;-87
2023/10/22 04:20:03;;;;;;;2.33;1.80;;;18.00;71.50;;;;;;6181299;23;20194;-87
2023/10/22 04:22:32;;;;;;;1.80;1.50;;;18.00;71.50;;;;;;6179326;23;20292;-87
2023/10/22 04:25:05;;;;;;;1.50;1.40;;;17.90;71.00;;;;;;6177801;23;20179;-88
2023/10/22 04:27:35;;;;;;;2.50;2.30;;;17.90;71.50;;;;;;6180639;23;20606;-88
2023/10/22 04:30:07;;;;;;;11.13;3.57;;;17.80;72.20;;;;;;6179189;23;20767;-86
2023/10/22 04:32:37;;;;;;;4.27;2.20;;;17.80;71.90;;;;;;6181229;23;20594;-86
2023/10/22 04:35:09;;;;;;;1.03;1.03;;;17.80;71.70;;;;;;6177900;23;20504;-87
2023/10/22 04:37:38;;;;;;;10.47;3.40;;;17.80;71.60;;;;;;6176293;23;20202;-87
2023/10/22 04:40:09;;;;;;;2.47;2.27;;;17.80;72.20;;;;;;6168745;23;20901;-87
2023/10/22 04:42:46;;;;;;;0.70;0.70;;;17.80;71.70;;;;;;6181111;23;20476;-85
2023/10/22 04:48:03;;;;;;;3.73;1.50;;;17.80;71.40;;;;;;6204529;23;20211;-86
2023/10/22 04:50:41;;;;;;;2.40;1.73;;;17.90;71.40;;;;;;6184919;23;20171;-87
2023/10/22 04:53:10;;;;;;;2.30;2.00;;;17.90;71.60;;;;;;6211496;23;20162;-87
2023/10/22 04:55:39;;;;;;;5.73;3.30;;;17.90;71.60;;;;;;6212442;23;20163;-86
2023/10/22 04:58:08;;;;;;;13.13;1.33;;;17.90;71.60;;;;;;6183768;23;20251;-88
2023/10/22 05:00:36;;;;;;;7.10;1.47;;;17.90;71.70;;;;;;6212030;23;20195;-89
2023/10/22 05:03:09;;;;;;;2.83;1.47;;;17.90;71.60;;;;;;6214025;23;20173;-89
2023/10/22 05:05:40;;;;;;;3.70;2.17;;;17.90;71.80;;;;;;6208802;23;20190;-84
2023/10/22 05:08:09;;;;;;;0.70;0.70;;;17.90;71.70;;;;;;6209758;23;20221;-87
2023/10/22 05:10:39;;;;;;;2.00;0.87;;;18.00;71.90;;;;;;6209565;23;20171;-87
2023/10/22 05:28:28;;;;;;;5.60;3.37;;;18.20;71.80;;;;;;6184062;23;20215;-89
2023/10/22 05:31:55;;;;;;;3.47;1.87;;;18.30;71.90;;;;;;6210075;23;20178;-88
2023/10/22 05:35:32;;;;;;;3.00;1.03;;;18.40;71.60;;;;;;6210603;23;20171;-90
2023/10/22 05:47:45;;;;;;;6.17;3.17;;;18.60;69.50;;;;;;6190271;23;20183;-85
2023/10/22 05:50:14;;;;;;;3.57;1.47;;;18.70;69.40;;;;;;6213677;23;20496;-85
2023/10/22 05:52:43;;;;;;;6.10;3.07;;;18.80;69.30;;;;;;6214275;23;20167;-90
2023/10/22 05:55:13;;;;;;;3.13;1.83;;;18.80;68.80;;;;;;6214618;23;20510;-87
2023/10/22 05:57:44;;;;;;;3.20;2.03;;;18.90;68.90;;;;;;6213083;23;20167;-95
2023/10/22 06:00:19;;;;;;;5.07;1.77;;;18.90;68.80;;;;;;6215970;23;20193;-92
2023/10/22 06:02:49;;;;;;;2.93;2.57;;;19.00;68.50;;;;;;6215770;23;20242;-88
2023/10/22 06:05:24;;;;;;;7.77;1.83;;;19.00;68.30;;;;;;6212517;23;20167;-89
2023/10/22 06:07:53;;;;;;;2.67;2.13;;;19.10;68.30;;;;;;6210524;23;20201;-86
2023/10/22 06:10:22;;;;;;;1.53;1.23;;;19.10;68.20;;;;;;6211053;23;20592;-87
2023/10/22 06:12:52;;;;;;;0.70;0.70;;;19.20;68.20;;;;;;6211314;23;20602;-88
2023/10/22 06:15:21;;;;;;;3.03;2.20;;;19.30;68.00;;;;;;6210997;23;20254;-90
2023/10/22 06:17:57;;;;;;;0.80;0.80;;;19.30;67.90;;;;;;6212911;23;20179;-94
2023/10/22 06:20:29;;;;;;;3.80;2.57;;;19.30;67.30;;;;;;6211233;23;20167;-84
2023/10/22 06:22:58;;;;;;;1.87;1.70;;;19.30;66.90;;;;;;6211284;23;20278;-89
2023/10/22 06:25:29;;;;;;;2.70;1.00;;;19.40;66.50;;;;;;6212288;23;20169;-88
2023/10/22 06:28:07;;;;;;;1.07;0.90;;;19.40;66.10;;;;;;6209053;23;20483;-87
2023/10/22 06:30:42;;;;;;;4.07;1.65;;;19.50;65.70;;;;;;6212233;23;20605;-88
2023/10/22 06:33:16;;;;;;;1.60;1.50;;;19.50;65.90;;;;;;6211439;23;20612;-88
2023/10/22 06:35:48;;;;;;;5.20;2.40;;;19.60;65.90;;;;;;6211419;23;20193;-89
2023/10/22 06:38:19;;;;;;;2.27;1.47;;;19.60;65.90;;;;;;6212867;23;20177;-88
2023/10/22 06:40:48;;;;;;;0.60;0.60;;;19.70;66.10;;;;;;6210833;23;20649;-89
2023/10/22 06:43:17;;;;;;;2.23;1.60;;;19.80;66.20;;;;;;6211511;23;20269;-89
2023/10/22 06:45:48;;;;;;;8.30;1.23;;;19.90;66.10;;;;;;6212553;23;20167;-89
2023/10/22 06:48:19;;;;;;;3.75;1.90;;;19.90;65.60;;;;;;6212055;23;20856;-89
2023/10/22 06:50:47;;;;;;;4.45;2.35;;;20.00;65.50;;;;;;6212523;23;20694;-90
2023/10/22 06:53:27;;;;;;;2.50;1.00;;;20.10;65.40;;;;;;6214321;23;20171;-86
2023/10/22 06:55:58;;;;;;;1.50;0.88;;;20.20;64.90;;;;;;6212171;23;20201;-90
2023/10/22 06:58:28;;;;;;;1.88;1.42;;;20.20;64.40;;;;;;6212749;23;20167;-91
2023/10/22 07:01:09;;;;;;;3.30;0.98;;;20.30;64.30;;;;;;6212546;23;20261;-87
2023/10/22 07:03:44;;;;;;;2.60;0.98;;;20.40;64.20;;;;;;6212501;23;20171;-88
2023/10/22 07:06:19;;;;;;;2.60;1.63;;;20.50;63.70;;;;;;6213059;23;20881;-92
2023/10/22 07:08:50;;;;;;;2.60;1.52;;;20.60;63.50;;;;;;6211346;23;20174;-88
2023/10/22 07:11:23;;;;;;;2.45;1.75;;;20.60;62.90;;;;;;6211540;23;20175;-88
2023/10/22 07:13:51;;;;;;;2.10;1.42;;;20.70;63.00;;;;;;6208701;23;20178;-87
2023/10/22 07:16:20;;;;;;;1.52;1.13;;;20.80;63.20;;;;;;6211228;23;20209;-86
2023/10/22 07:18:50;;;;;;;5.18;2.42;;;20.90;62.50;;;;;;6211044;23;20174;-89
2023/10/22 07:21:20;;;;;;;5.05;2.10;;;20.90;62.20;;;;;;6212229;23;20187;-88
2023/10/22 07:23:49;;;;;;;0.63;0.63;;;21.00;61.70;;;;;;6211482;23;20163;-87
2023/10/22 07:26:22;;;;;;;2.65;1.20;;;21.00;61.80;;;;;;6212309;23;20175;-89
2023/10/22 07:28:51;;;;;;;0.95;0.80;;;21.00;61.40;;;;;;6212501;23;20169;-89
2023/10/22 07:31:19;;;;;;;11.43;1.40;;;21.10;61.10;;;;;;6212885;23;20167;-87
2023/10/22 07:33:52;;;;;;;8.05;2.10;;;21.10;61.30;;;;;;6211845;23;20178;-89
2023/10/22 07:36:22;;;;;;;3.38;1.88;;;21.10;61.40;;;;;;6213208;23;20167;-89
2023/10/22 07:38:52;;;;;;;0.60;0.60;;;21.20;60.90;;;;;;6213006;23;20223;-88
2023/10/22 07:41:26;;;;;;;0.88;0.88;;;21.20;61.00;;;;;;6212503;23;20183;-89
2023/10/22 07:43:55;;;;;;;1.33;0.95;;;21.30;61.10;;;;;;6212533;23;20194;-89
2023/10/22 07:46:26;;;;;;;2.22;1.15;;;21.40;61.20;;;;;;6211853;23;20179;-88
2023/10/22 07:48:56;;;;;;;1.35;1.25;;;21.40;60.80;;;;;;6211549;23;20253;-85
2023/10/22 07:51:27;;;;;;;3.03;1.85;;;21.50;60.90;;;;;;6213398;23;20178;-90
2023/10/22 07:53:57;;;;;;;0.70;0.70;;;21.60;60.80;;;;;;6213672;23;20167;-89
2023/10/22 07:56:27;;;;;;;0.60;0.60;;;21.60;60.30;;;;;;6213019;23;20172;-89
2023/10/22 07:58:56;;;;;;;1.98;1.55;;;21.70;60.00;;;;;;6212687;23;20164;-88
2023/10/22 08:01:26;;;;;;;1.90;1.00;;;21.90;60.20;;;;;;6212741;23;20195;-88
2023/10/22 08:03:57;;;;;;;1.80;1.55;;;21.90;59.90;;;;;;6213662;23;20246;-89
2023/10/22 08:06:26;;;;;;;1.65;1.27;;;22.10;60.00;;;;;;6212338;23;20170;-88
2023/10/22 08:08:57;;;;;;;1.45;0.80;;;22.20;59.80;;;;;;6186208;23;20178;-89
2023/10/22 08:11:25;;;;;;;1.48;1.38;;;22.30;59.30;;;;;;6211904;23;20225;-88
2023/10/22 08:13:56;;;;;;;1.95;1.77;;;22.40;59.40;;;;;;6210765;23;20676;-87
2023/10/22 08:16:27;;;;;;;0.68;0.60;;;22.50;59.40;;;;;;6214837;23;20617;-88
2023/10/22 08:18:57;;;;;;;1.73;1.42;;;22.60;59.20;;;;;;6211472;23;20163;-89
2023/10/22 08:21:25;;;;;;;0.80;0.80;;;22.70;59.30;;;;;;6212399;23;20164;-88
2023/10/22 08:23:55;;;;;;;1.15;1.05;;;22.80;59.20;;;;;;6211111;23;20613;-88
2023/10/22 08:26:24;;;;;;;0.88;0.88;;;22.90;59.20;;;;;;6212509;23;20167;-87
2023/10/22 08:28:53;;;;;;;3.03;0.90;;;23.00;59.00;;;;;;6211283;23;20246;-88
2023/10/22 08:31:21;;;;;;;1.80;1.20;;;23.10;58.60;;;;;;6209314;23;20251;-86
2023/10/22 08:33:51;;;;;;;0.50;0.50;;;23.20;58.80;;;;;;6210645;23;20924;-88
2023/10/22 08:36:20;;;;;;;1.45;0.70;;;23.30;59.00;;;;;;6213294;23;20167;-88
2023/10/22 08:38:50;;;;;;;1.40;1.00;;;23.40;58.90;;;;;;6210723;23;20178;-85
2023/10/22 08:41:23;;;;;;;1.17;0.88;;;23.50;58.90;;;;;;6209466;23;20171;-87
2023/10/22 08:43:53;;;;;;;1.17;0.40;;;23.60;58.70;;;;;;6210064;23;20211;-90
2023/10/22 08:46:22;;;;;;;0.43;0.43;;;23.70;58.70;;;;;;6213442;23;20163;-87
2023/10/22 08:48:51;;;;;;;0.40;0.40;;;23.80;58.70;;;;;;6210024;23;20195;-88
2023/10/22 08:51:24;;;;;;;0.85;0.70;;;23.90;58.80;;;;;;6210672;23;20250;-89
2023/10/22 08:53:54;;;;;;;0.65;0.65;;;24.00;58.70;;;;;;6212002;23;20655;-89
2023/10/22 08:56:25;;;;;;;1.85;0.90;;;24.10;57.70;;;;;;6213133;23;20222;-93
2023/10/22 08:59:03;;;;;;;1.60;0.80;;;24.20;57.80;;;;;;6213691;23;20232;-87
2023/10/22 09:01:37;;;;;;;0.85;0.73;;;24.30;57.90;;;;;;6214998;23;20167;-90
2023/10/22 09:04:06;;;;;;;0.93;0.80;;;24.40;57.80;;;;;;6214343;23;20613;-86
2023/10/22 09:06:38;;;;;;;5.13;1.55;;;24.50;57.70;;;;;;6211435;23;20275;-88
2023/10/22 09:09:08;;;;;;;1.58;1.17;;;24.60;57.50;;;;;;6211869;23;20167;-90
2023/10/22 09:11:54;;;;;;;1.17;1.05;;;24.60;56.90;;;;;;6214384;23;20171;-87
2023/10/22 09:14:29;;;;;;;0.70;0.70;;;24.70;56.90;;;;;;6215512;23;20490;-91
2023/10/22 09:17:16;;;;;;;1.30;0.95;;;24.80;56.50;;;;;;6210933;23;20173;-87
2023/10/22 09:19:52;;;;;;;0.85;0.85;;;25.00;56.80;;;;;;6209887;23;20163;-87
2023/10/22 09:22:27;;;;;;;1.13;0.70;;;25.10;56.90;;;;;;6213321;23;20190;-88
2023/10/22 09:25:09;;;;;;;1.35;0.75;;;25.20;56.50;;;;;;6213218;23;20163;-90
2023/10/22 09:27:51;;;;;;;1.75;1.27;;;25.20;56.50;;;;;;6212945;23;20631;-88
2023/10/22 09:30:36;;;;;;;1.58;1.35;;;25.40;56.10;;;;;;6212504;23;20171;-88
2023/10/22 09:33:16;;;;;;;0.68;0.68;;;25.50;56.20;;;;;;6212337;23;20167;-88
2023/10/22 09:36:03;;;;;;;0.95;0.63;;;25.60;56.40;;;;;;6213761;23;20502;-87
2023/10/22 09:38:49;;;;;;;0.75;0.75;;;25.60;56.30;;;;;;6210364;23;20246;-86
2023/10/22 09:41:27;;;;;;;0.57;0.55;;;25.80;56.20;;;;;;6213547;23;20167;-88
2023/10/22 09:43:59;;;;;;;4.68;0.50;;;25.90;56.30;;;;;;6214790;23;20202;-91
2023/10/22 09:46:30;;;;;;;1.42;0.93;;;25.90;55.70;;;;;;6215445;23;20167;-87
2023/10/22 09:49:04;;;;;;;0.40;0.40;;;26.00;55.20;;;;;;6215718;23;20552;-89
2023/10/22 09:51:36;;;;;;;1.50;0.60;;;26.10;55.20;;;;;;6215905;23;20238;-87
2023/10/22 09:54:09;;;;;;;0.40;0.40;;;26.20;55.20;;;;;;6214441;23;20175;-87
2023/10/22 09:56:52;;;;;;;3.58;0.85;;;26.20;55.00;;;;;;6210100;23;20688;-89
2023/10/22 09:59:26;;;;;;;1.42;0.95;;;26.30;54.10;;;;;;6211944;23;20621;-87
2023/10/22 10:01:57;;;;;;;0.65;0.43;;;26.40;54.20;;;;;;6214914;23;20167;-89
2023/10/22 10:04:27;;;;;;;1.00;0.73;;;26.50;54.30;;;;;;6213879;23;20585;-88
2023/10/22 10:07:05;;;;;;;0.52;0.52;;;26.50;53.90;;;;;;6211290;23;20221;-87
2023/10/22 10:09:55;;;;;;;1.15;1.05;;;26.60;53.90;;;;;;6214793;23;20175;-88
2023/10/22 10:12:42;;;;;;;0.40;0.40;;;26.70;53.60;;;;;;6211073;23;20182;-88
2023/10/22 10:15:40;;;;;;;5.32;0.50;;;26.80;53.20;;;;;;6217511;23;20168;-88
2023/10/22 10:18:09;;;;;;;0.40;0.40;;;26.80;52.70;;;;;;6221194;23;20194;-89
2023/10/22 10:20:43;;;;;;;4.28;0.90;;;26.90;52.90;;;;;;6233812;23;20227;-90
2023/10/22 10:23:19;;;;;;;0.77;0.65;;;27.00;52.80;;;;;;6233307;23;20503;-88
2023/10/22 10:25:49;;;;;;;0.30;0.30;;;27.00;52.70;;;;;;6233058;23;20167;-86
2023/10/22 10:28:40;;;;;;;0.40;0.40;;;27.10;53.00;;;;;;6234250;23;20167;-86
2023/10/22 10:31:29;;;;;;;0.40;0.40;;;27.10;52.20;;;;;;6238967;23;20185;-88
2023/10/22 10:34:02;;;;;;;0.57;0.55;;;27.20;51.60;;;;;;6238004;23;20198;-88
2023/10/22 10:36:38;;;;;;;1.17;0.60;;;27.20;51.30;;;;;;6236356;23;20167;-89
2023/10/22 10:39:39;;;;;;;0.45;0.45;;;27.20;51.10;;;;;;6238229;23;20191;-89
2023/10/22 10:42:12;;;;;;;0.50;0.50;;;27.30;50.50;;;;;;6203597;23;20163;-90
2023/10/22 10:45:25;;;;;;;0.60;0.60;;;27.30;50.60;;;;;;6188546;23;20198;-88
2023/10/22 10:47:54;;;;;;;0.55;0.55;;;27.30;50.20;;;;;;6214235;23;20229;-88
2023/10/22 10:50:26;;;;;;;6.72;0.90;;;27.40;50.50;;;;;;6215157;23;20174;-87
2023/10/22 10:53:02;;;;;;;2.85;2.20;;;27.40;50.20;;;;;;6212850;23;20485;-87
2023/10/22 10:55:36;;;;;;;0.38;0.38;;;27.50;50.10;;;;;;6212780;23;20174;-88
2023/10/22 10:58:10;;;;;;;0.40;0.40;;;27.60;50.20;;;;;;6213736;23;20167;-90
2023/10/22 11:00:42;;;;;;;0.47;0.47;;;27.60;49.30;;;;;;6214612;23;20167;-87
2023/10/22 11:03:29;;;;;;;2.55;0.95;;;27.70;49.30;;;;;;6207529;23;20190;-85
2023/10/22 11:05:57;;;;;;;0.32;0.32;;;27.70;49.90;;;;;;6211768;23;20167;-88
2023/10/22 11:08:26;;;;;;;1.10;1.00;;;27.80;49.80;;;;;;6211337;23;20178;-85
2023/10/22 11:10:59;;;;;;;2.15;0.77;;;27.80;49.40;;;;;;6212575;23;20162;-86
2023/10/22 11:13:29;;;;;;;0.45;0.45;;;27.90;49.40;;;;;;6213533;23;20170;-85
2023/10/22 11:16:06;;;;;;;0.47;0.47;;;28.00;49.50;;;;;;6210395;23;20214;-88
2023/10/22 11:18:54;;;;;;;1.33;0.50;;;28.00;49.20;;;;;;6209546;23;20501;-88
2023/10/22 11:21:23;;;;;;;0.40;0.40;;;28.10;49.20;;;;;;6211536;23;20289;-88
2023/10/22 11:23:52;;;;;;;0.52;0.52;;;28.20;49.30;;;;;;6212355;23;20221;-87
2023/10/22 11:26:23;;;;;;;0.60;0.60;;;28.20;49.00;;;;;;6211874;23;20191;-88
2023/10/22 11:28:54;;;;;;;0.40;0.40;;;28.20;48.20;;;;;;6209499;23;20545;-87
2023/10/22 11:31:25;;;;;;;1.35;0.98;;;28.20;48.60;;;;;;6211837;23;20167;-86
2023/10/22 11:33:54;;;;;;;8.52;1.25;;;28.30;48.30;;;;;;6209904;23;20627;-86
2023/10/22 11:36:24;;;;;;;0.60;0.60;;;28.20;48.10;;;;;;6212060;23;20183;-87
2023/10/22 11:38:52;;;;;;;0.68;0.68;;;28.20;48.10;;;;;;6211547;23;20497;-85
2023/10/22 11:41:21;;;;;;;0.47;0.47;;;28.20;48.50;;;;;;6211057;23;20182;-87
2023/10/22 11:43:51;;;;;;;1.13;0.82;;;28.20;48.80;;;;;;6211241;23;20719;-88
2023/10/22 11:46:22;;;;;;;0.32;0.32;;;28.30;48.90;;;;;;6211018;23;20640;-86
2023/10/22 11:48:51;;;;;;;0.30;0.30;;;28.30;49.10;;;;;;6211773;23;20246;-87
2023/10/22 11:51:20;;;;;;;0.28;0.28;;;28.30;49.20;;;;;;6212554;23;20170;-87
2023/10/22 11:53:49;;;;;;;0.43;0.30;;;28.30;49.40;;;;;;6211377;23;20182;-88
2023/10/22 11:56:19;;;;;;;0.45;0.45;;;28.30;49.30;;;;;;6211645;23;20349;-88
2023/10/22 11:58:52;;;;;;;0.73;0.68;;;28.30;49.00;;;;;;6211243;23;20687;-87
2023/10/22 12:01:23;;;;;;;2.28;0.95;;;28.30;48.30;;;;;;6211951;23;20163;-88
2023/10/22 12:03:52;;;;;;;0.60;0.60;;;28.30;48.10;;;;;;6210271;23;20190;-87
2023/10/22 12:06:22;;;;;;;1.77;0.80;;;28.30;48.20;;;;;;6211573;23;20171;-86
2023/10/22 12:08:50;;;;;;;2.45;1.00;;;28.30;48.20;;;;;;6210549;23;20171;-87
2023/10/22 12:11:19;;;;;;;0.50;0.50;;;28.40;48.20;;;;;;6205455;23;20177;-85
2023/10/22 12:13:56;;;;;;;6.32;0.95;;;28.40;48.20;;;;;;6210782;23;20689;-88
2023/10/22 12:16:43;;;;;;;0.52;0.52;;;28.40;48.40;;;;;;6212834;23;20171;-87
2023/10/22 12:19:13;;;;;;;1.83;0.90;;;28.40;47.80;;;;;;6209926;23;20167;-87
2023/10/22 12:21:42;;;;;;;0.60;0.60;;;28.50;48.00;;;;;;6212644;23;20179;-87
2023/10/22 12:24:12;;;;;;;0.38;0.38;;;28.50;47.90;;;;;;6212495;23;20191;-86
2023/10/22 12:27:00;;;;;;;0.80;0.70;;;28.50;48.00;;;;;;6210086;23;20433;-87
2023/10/22 12:29:56;;;;;;;0.52;0.35;;;28.50;47.90;;;;;;6212203;23;20167;-88
2023/10/22 12:33:09;;;;;;;0.50;0.50;;;28.50;47.10;;;;;;6212387;23;20676;-87
2023/10/22 13:29:55;;;;;;;1.48;0.82;;;29.30;46.20;;;;;;6192547;23;20210;-88
2023/10/22 13:32:24;;;;;;;1.75;0.93;;;29.30;46.50;;;;;;6212075;23;20484;-84
2023/10/22 13:34:53;;;;;;;2.00;1.05;;;29.20;46.20;;;;;;6213292;23;20203;-84
2023/10/22 13:37:21;;;;;;;1.30;1.20;;;29.20;46.20;;;;;;6212013;23;20171;-85
2023/10/22 13:39:53;;;;;;;0.28;0.28;;;29.20;46.50;;;;;;6216989;23;20234;-85
2023/10/22 13:42:21;;;;;;;2.17;1.02;;;29.20;46.70;;;;;;6210541;23;20163;-86
2023/10/22 13:44:50;;;;;;;0.50;0.50;;;29.10;46.70;;;;;;6209295;23;20302;-84
2023/10/22 13:47:20;;;;;;;1.00;0.90;;;29.20;46.70;;;;;;6210946;23;20206;-83
2023/10/22 13:49:49;;;;;;;1.98;1.38;;;29.10;46.10;;;;;;6207004;23;20175;-85
2023/10/22 13:52:19;;;;;;;1.27;0.68;;;29.10;46.20;;;;;;6210339;23;20624;-89
2023/10/22 13:54:49;;;;;;;3.47;1.38;;;29.00;45.90;;;;;;6211314;23;20187;-88
2023/10/22 13:57:18;;;;;;;4.82;0.57;;;28.90;45.80;;;;;;6187722;23;20391;-86
2023/10/22 13:59:51;;;;;;;0.20;0.20;;;29.00;46.10;;;;;;6211501;23;20255;-88
2023/10/22 14:02:26;;;;;;;0.65;0.35;;;28.90;46.30;;;;;;6183291;23;20171;-87
2023/10/22 14:04:54;;;;;;;0.45;0.45;;;28.80;46.30;;;;;;6211193;23;20190;-86
2023/10/22 14:07:23;;;;;;;0.30;0.30;;;28.80;46.50;;;;;;6211465;23;20174;-88
2023/10/22 14:09:53;;;;;;;3.80;0.75;;;28.80;46.60;;;;;;6213021;23;20916;-88
2023/10/22 14:12:22;;;;;;;0.30;0.30;;;28.70;46.50;;;;;;6210425;23;20242;-89
2023/10/22 14:14:50;;;;;;;0.40;0.40;;;28.70;46.60;;;;;;6212989;23;20504;-86
2023/10/22 14:17:23;;;;;;;0.68;0.68;;;28.70;46.70;;;;;;6211806;23;20175;-86
2023/10/22 14:19:53;;;;;;;0.47;0.47;;;28.60;46.80;;;;;;6212015;23;20163;-83
2023/10/22 14:22:22;;;;;;;0.40;0.40;;;28.60;46.70;;;;;;6207630;23;20515;-85
2023/10/22 14:24:57;;;;;;;0.32;0.30;;;28.60;46.70;;;;;;6211653;23;20190;-87
2023/10/22 14:27:26;;;;;;;1.25;0.88;;;28.50;46.70;;;;;;6208427;23;20395;-88
2023/10/22 14:29:57;;;;;;;2.95;1.15;;;28.40;46.80;;;;;;6211337;23;20191;-85
2023/10/22 14:32:27;;;;;;;0.75;0.70;;;28.40;46.90;;;;;;6211640;23;20198;-86
2023/10/22 14:34:58;;;;;;;0.30;0.30;;;28.40;47.10;;;;;;6207508;23;20183;-86